createdAt,value
2022-12-18T00:00:07.242Z,443.25
2022-12-18T00:00:17.233Z,443.29
2022-12-18T00:00:27.237Z,443.29
2022-12-18T00:00:37.238Z,443.23
2022-12-18T00:00:47.238Z,443.20
2022-12-18T00:00:57.238Z,443.24
2022-12-18T00:01:07.257Z,443.21
2022-12-18T00:01:17.330Z,443.23
2022-12-18T00:01:27.272Z,443.18
2022-12-18T00:01:37.336Z,443.13
2022-12-18T00:01:47.290Z,443.09
2022-12-18T00:01:57.270Z,443.10
2022-12-18T00:02:07.324Z,443.01
2022-12-18T00:02:17.247Z,443.05
2022-12-18T00:02:27.293Z,442.98
2022-12-18T00:02:37.381Z,442.95
2022-12-18T00:02:47.449Z,443.00
2022-12-18T00:02:57.425Z,442.96
2022-12-18T00:03:07.379Z,442.91
2022-12-18T00:03:17.339Z,442.95
2022-12-18T00:03:27.342Z,443.00
2022-12-18T00:03:37.883Z,442.95
2022-12-18T00:03:47.351Z,443.00
2022-12-18T00:03:57.516Z,442.91
2022-12-18T00:04:07.515Z,442.88
2022-12-18T00:04:17.418Z,442.85
2022-12-18T00:04:27.357Z,442.94
2022-12-18T00:04:37.256Z,442.87
2022-12-18T00:04:47.260Z,442.94
2022-12-18T00:04:57.261Z,443.00
2022-12-18T00:05:07.273Z,442.97
2022-12-18T00:05:17.264Z,443.03
2022-12-18T00:05:27.263Z,443.05
2022-12-18T00:05:37.268Z,443.13
2022-12-18T00:05:47.266Z,443.09
2022-12-18T00:05:57.268Z,443.10
2022-12-18T00:06:07.281Z,443.18
2022-12-18T00:06:17.274Z,443.24
2022-12-18T00:06:27.272Z,443.21
2022-12-18T00:06:37.272Z,443.34
2022-12-18T00:06:47.272Z,443.31
2022-12-18T00:06:57.273Z,443.34
2022-12-18T00:07:07.281Z,443.38
2022-12-18T00:07:17.277Z,443.35
2022-12-18T00:07:27.276Z,443.41
2022-12-18T00:07:37.264Z,443.41
2022-12-18T00:07:47.279Z,443.37
2022-12-18T00:07:57.285Z,443.39
2022-12-18T00:08:09.297Z,443.40
2022-12-18T00:08:17.286Z,443.49
2022-12-18T00:08:27.280Z,443.43
2022-12-18T00:08:37.282Z,443.48
2022-12-18T00:08:47.288Z,443.49
2022-12-18T00:08:57.286Z,443.49
2022-12-18T00:09:07.304Z,443.42
2022-12-18T00:09:17.295Z,443.42
2022-12-18T00:09:31.190Z,443.45
2022-12-18T00:09:39.539Z,443.33
2022-12-18T00:09:47.316Z,443.40
2022-12-18T00:09:57.289Z,443.34
2022-12-18T00:10:07.297Z,443.42
2022-12-18T00:10:17.298Z,443.39
2022-12-18T00:10:27.291Z,443.34
2022-12-18T00:10:37.295Z,443.36
2022-12-18T00:10:47.296Z,443.30
2022-12-18T00:10:59.524Z,443.39
2022-12-18T00:11:07.306Z,443.35
2022-12-18T00:11:17.300Z,443.32
2022-12-18T00:11:27.298Z,443.31
2022-12-18T00:11:37.297Z,443.31
2022-12-18T00:11:47.300Z,443.35
2022-12-18T00:11:57.302Z,443.40
2022-12-18T00:12:29.817Z,443.30
2022-12-18T00:12:37.306Z,443.35
2022-12-18T00:12:47.309Z,443.35
2022-12-18T00:12:57.315Z,443.33
2022-12-18T00:13:09.970Z,443.31
2022-12-18T00:13:17.320Z,443.24
2022-12-18T00:13:27.312Z,443.30
2022-12-18T00:13:37.653Z,443.24
2022-12-18T00:13:47.313Z,443.16
2022-12-18T00:13:57.314Z,443.19
2022-12-18T00:14:07.367Z,443.26
2022-12-18T00:14:17.318Z,443.17
2022-12-18T00:14:27.316Z,443.16
2022-12-18T00:14:37.319Z,443.10
2022-12-18T00:14:47.319Z,443.06
2022-12-18T00:14:57.320Z,443.05
2022-12-18T00:15:07.338Z,442.94
2022-12-18T00:15:17.322Z,442.99
2022-12-18T00:15:27.327Z,442.88
2022-12-18T00:15:37.325Z,442.75
2022-12-18T00:15:47.338Z,442.79
2022-12-18T00:15:57.361Z,442.64
2022-12-18T00:16:07.419Z,442.63
2022-12-18T00:16:17.381Z,442.59
2022-12-18T00:16:27.404Z,442.60
2022-12-18T00:16:37.368Z,442.51
2022-12-18T00:16:47.334Z,442.41
2022-12-18T00:16:57.330Z,442.34
2022-12-18T00:17:07.339Z,442.32
2022-12-18T00:17:17.332Z,442.24
2022-12-18T00:17:27.335Z,442.30
2022-12-18T00:17:37.334Z,442.27
2022-12-18T00:17:47.335Z,442.25
2022-12-18T00:17:57.340Z,442.25
2022-12-18T00:18:07.347Z,442.27
2022-12-18T00:18:20.556Z,442.25
2022-12-18T00:18:27.339Z,442.23
2022-12-18T00:18:37.683Z,442.19
2022-12-18T00:18:47.341Z,442.25
2022-12-18T00:18:57.343Z,442.17
2022-12-18T00:19:07.357Z,442.28
2022-12-18T00:19:17.342Z,442.27
2022-12-18T00:19:27.348Z,442.27
2022-12-18T00:19:37.344Z,442.22
2022-12-18T00:19:47.345Z,442.25
2022-12-18T00:19:57.345Z,442.27
2022-12-18T00:20:07.365Z,442.25
2022-12-18T00:20:17.349Z,442.27
2022-12-18T00:20:27.350Z,442.25
2022-12-18T00:20:37.350Z,442.32
2022-12-18T00:20:47.361Z,442.34
2022-12-18T00:20:57.353Z,442.35
2022-12-18T00:21:07.368Z,442.42
2022-12-18T00:21:17.357Z,442.39
2022-12-18T00:21:27.358Z,442.39
2022-12-18T00:21:37.354Z,442.37
2022-12-18T00:21:47.355Z,442.33
2022-12-18T00:21:57.359Z,442.43
2022-12-18T00:22:07.376Z,442.44
2022-12-18T00:22:17.365Z,442.40
2022-12-18T00:22:27.365Z,442.46
2022-12-18T00:22:37.369Z,442.42
2022-12-18T00:22:47.376Z,442.39
2022-12-18T00:22:57.372Z,442.34
2022-12-18T00:23:07.383Z,442.35
2022-12-18T00:23:17.369Z,442.27
2022-12-18T00:23:27.372Z,442.27
2022-12-18T00:23:37.865Z,442.34
2022-12-18T00:23:47.370Z,442.29
2022-12-18T00:23:57.375Z,442.27
2022-12-18T00:24:07.393Z,442.19
2022-12-18T00:24:17.375Z,442.20
2022-12-18T00:24:27.376Z,442.22
2022-12-18T00:24:37.377Z,442.16
2022-12-18T00:24:47.377Z,442.20
2022-12-18T00:24:57.377Z,442.11
2022-12-18T00:25:07.394Z,442.17
2022-12-18T00:25:17.381Z,442.17
2022-12-18T00:25:27.381Z,442.17
2022-12-18T00:25:37.392Z,442.11
2022-12-18T00:25:47.385Z,442.07
2022-12-18T00:25:57.391Z,442.02
2022-12-18T00:26:07.398Z,442.00
2022-12-18T00:26:17.387Z,442.04
2022-12-18T00:26:27.387Z,442.02
2022-12-18T00:26:37.387Z,441.95
2022-12-18T00:26:47.391Z,442.02
2022-12-18T00:26:57.395Z,441.91
2022-12-18T00:27:07.406Z,441.93
2022-12-18T00:27:17.391Z,441.89
2022-12-18T00:27:27.392Z,441.89
2022-12-18T00:27:37.395Z,441.85
2022-12-18T00:27:47.396Z,441.82
2022-12-18T00:27:57.396Z,441.94
2022-12-18T00:28:07.413Z,441.92
2022-12-18T00:28:17.402Z,441.85
2022-12-18T00:28:27.406Z,441.80
2022-12-18T00:28:37.402Z,441.71
2022-12-18T00:28:47.405Z,441.70
2022-12-18T00:28:57.403Z,441.65
2022-12-18T00:29:07.431Z,441.70
2022-12-18T00:29:17.405Z,441.63
2022-12-18T00:29:27.411Z,441.61
2022-12-18T00:29:37.410Z,441.66
2022-12-18T00:29:47.408Z,441.56
2022-12-18T00:29:57.404Z,441.60
2022-12-18T00:30:07.424Z,441.55
2022-12-18T00:30:17.408Z,441.58
2022-12-18T00:30:27.410Z,441.44
2022-12-18T00:30:37.419Z,441.41
2022-12-18T00:30:47.419Z,441.39
2022-12-18T00:30:57.421Z,441.46
2022-12-18T00:31:07.461Z,441.46
2022-12-18T00:31:17.469Z,441.40
2022-12-18T00:31:27.458Z,441.36
2022-12-18T00:31:37.462Z,441.39
2022-12-18T00:31:47.491Z,441.36
2022-12-18T00:31:57.458Z,441.32
2022-12-18T00:32:07.437Z,441.33
2022-12-18T00:32:17.427Z,441.34
2022-12-18T00:32:27.428Z,441.32
2022-12-18T00:32:38.177Z,441.28
2022-12-18T00:32:47.437Z,441.27
2022-12-18T00:32:57.445Z,441.26
2022-12-18T00:33:07.452Z,441.26
2022-12-18T00:33:17.431Z,441.23
2022-12-18T00:33:27.439Z,441.25
2022-12-18T00:33:37.846Z,441.28
2022-12-18T00:33:47.450Z,441.27
2022-12-18T00:33:57.437Z,441.17
2022-12-18T00:34:07.463Z,441.18
2022-12-18T00:34:17.442Z,441.20
2022-12-18T00:34:27.440Z,441.15
2022-12-18T00:34:37.448Z,441.16
2022-12-18T00:34:47.445Z,441.21
2022-12-18T00:34:57.448Z,441.18
2022-12-18T00:35:07.464Z,441.15
2022-12-18T00:35:17.447Z,441.26
2022-12-18T00:35:27.447Z,441.18
2022-12-18T00:35:37.455Z,441.21
2022-12-18T00:35:47.452Z,441.14
2022-12-18T00:35:57.451Z,441.09
2022-12-18T00:36:07.463Z,441.14
2022-12-18T00:36:17.458Z,441.07
2022-12-18T00:36:27.452Z,441.05
2022-12-18T00:36:37.462Z,441.11
2022-12-18T00:36:47.455Z,441.15
2022-12-18T00:36:57.456Z,441.12
2022-12-18T00:37:07.468Z,441.17
2022-12-18T00:37:20.270Z,441.15
2022-12-18T00:37:27.461Z,441.10
2022-12-18T00:37:37.460Z,441.19
2022-12-18T00:37:47.459Z,441.20
2022-12-18T00:37:57.462Z,441.22
2022-12-18T00:38:07.475Z,441.22
2022-12-18T00:38:17.476Z,441.20
2022-12-18T00:38:27.474Z,441.25
2022-12-18T00:38:37.465Z,441.29
2022-12-18T00:38:47.466Z,441.25
2022-12-18T00:38:57.473Z,441.30
2022-12-18T00:39:07.499Z,441.37
2022-12-18T00:39:17.470Z,441.34
2022-12-18T00:39:27.471Z,441.28
2022-12-18T00:39:37.473Z,441.33
2022-12-18T00:39:47.472Z,441.28
2022-12-18T00:39:57.475Z,441.31
2022-12-18T00:40:07.489Z,441.24
2022-12-18T00:40:17.476Z,441.28
2022-12-18T00:40:27.482Z,441.31
2022-12-18T00:40:37.478Z,441.29
2022-12-18T00:40:47.480Z,441.25
2022-12-18T00:40:57.480Z,441.26
2022-12-18T00:41:07.484Z,441.26
2022-12-18T00:41:17.482Z,441.23
2022-12-18T00:41:27.486Z,441.19
2022-12-18T00:41:37.486Z,441.14
2022-12-18T00:41:47.484Z,441.08
2022-12-18T00:41:57.485Z,441.10
2022-12-18T00:42:07.498Z,441.06
2022-12-18T00:42:17.488Z,441.07
2022-12-18T00:42:27.494Z,441.05
2022-12-18T00:42:37.489Z,441.01
2022-12-18T00:42:47.491Z,440.99
2022-12-18T00:42:57.491Z,440.90
2022-12-18T00:43:07.525Z,440.89
2022-12-18T00:43:17.493Z,440.83
2022-12-18T00:43:27.499Z,440.77
2022-12-18T00:43:37.824Z,440.71
2022-12-18T00:43:47.496Z,440.74
2022-12-18T00:43:57.498Z,440.64
2022-12-18T00:44:07.533Z,440.72
2022-12-18T00:44:17.497Z,440.64
2022-12-18T00:44:27.499Z,440.58
2022-12-18T00:44:37.505Z,440.56
2022-12-18T00:44:47.502Z,440.53
2022-12-18T00:44:57.503Z,440.52
2022-12-18T00:45:12.359Z,440.42
2022-12-18T00:45:18.506Z,440.39
2022-12-18T00:45:27.609Z,440.40
2022-12-18T00:45:37.533Z,440.40
2022-12-18T00:45:47.605Z,440.37
2022-12-18T00:45:57.581Z,440.37
2022-12-18T00:46:07.586Z,440.35
2022-12-18T00:46:17.595Z,440.38
2022-12-18T00:46:27.512Z,440.30
2022-12-18T00:46:37.532Z,440.28
2022-12-18T00:46:47.511Z,440.23
2022-12-18T00:46:57.512Z,440.19
2022-12-18T00:47:07.531Z,440.21
2022-12-18T00:47:17.513Z,440.20
2022-12-18T00:47:27.515Z,440.21
2022-12-18T00:47:37.524Z,440.21
2022-12-18T00:47:47.519Z,440.23
2022-12-18T00:47:57.521Z,440.16
2022-12-18T00:48:07.545Z,440.19
2022-12-18T00:48:17.518Z,440.15
2022-12-18T00:48:27.520Z,440.14
2022-12-18T00:48:37.534Z,440.15
2022-12-18T00:48:47.522Z,440.12
2022-12-18T00:48:57.523Z,440.11
2022-12-18T00:49:07.570Z,440.10
2022-12-18T00:49:17.529Z,440.03
2022-12-18T00:49:27.531Z,440.06
2022-12-18T00:49:37.536Z,440.03
2022-12-18T00:49:47.562Z,440.04
2022-12-18T00:49:57.528Z,440.06
2022-12-18T00:50:07.549Z,440.17
2022-12-18T00:50:17.533Z,440.11
2022-12-18T00:50:27.535Z,440.10
2022-12-18T00:50:37.543Z,440.13
2022-12-18T00:50:47.535Z,440.16
2022-12-18T00:50:57.537Z,440.19
2022-12-18T00:51:07.546Z,440.17
2022-12-18T00:51:17.538Z,440.14
2022-12-18T00:51:27.540Z,440.08
2022-12-18T00:51:37.552Z,440.12
2022-12-18T00:51:47.544Z,440.17
2022-12-18T00:51:57.545Z,440.17
2022-12-18T00:52:07.564Z,440.18
2022-12-18T00:52:17.547Z,440.23
2022-12-18T00:52:27.544Z,440.29
2022-12-18T00:52:37.553Z,440.22
2022-12-18T00:52:47.550Z,440.32
2022-12-18T00:52:57.552Z,440.24
2022-12-18T00:53:07.561Z,440.29
2022-12-18T00:53:17.555Z,440.32
2022-12-18T00:53:27.555Z,440.35
2022-12-18T00:53:37.913Z,440.39
2022-12-18T00:53:47.570Z,440.40
2022-12-18T00:53:57.558Z,440.42
2022-12-18T00:54:07.567Z,440.43
2022-12-18T00:54:17.562Z,440.46
2022-12-18T00:54:27.562Z,440.42
2022-12-18T00:54:37.565Z,440.52
2022-12-18T00:54:47.564Z,440.56
2022-12-18T00:55:00.661Z,440.53
2022-12-18T00:55:08.570Z,440.52
2022-12-18T00:55:17.563Z,440.58
2022-12-18T00:55:27.567Z,440.53
2022-12-18T00:55:37.572Z,440.58
2022-12-18T00:55:47.564Z,440.49
2022-12-18T00:55:57.575Z,440.49
2022-12-18T00:56:07.575Z,440.50
2022-12-18T00:56:17.569Z,440.48
2022-12-18T00:56:27.574Z,440.58
2022-12-18T00:56:48.041Z,440.53
2022-12-18T00:56:49.717Z,440.57
2022-12-18T00:56:57.569Z,440.53
2022-12-18T00:57:07.584Z,440.53
2022-12-18T00:57:17.572Z,440.46
2022-12-18T00:57:27.579Z,440.49
2022-12-18T00:57:37.580Z,440.57
2022-12-18T00:57:47.599Z,440.59
2022-12-18T00:57:57.579Z,440.55
2022-12-18T00:58:07.591Z,440.54
2022-12-18T00:58:17.578Z,440.54
2022-12-18T00:58:27.584Z,440.58
2022-12-18T00:58:37.581Z,440.61
2022-12-18T00:58:47.588Z,440.57
2022-12-18T00:58:57.589Z,440.54
2022-12-18T00:59:07.599Z,440.55
2022-12-18T00:59:17.591Z,440.57
2022-12-18T00:59:27.588Z,440.55
2022-12-18T00:59:37.589Z,440.58
2022-12-18T00:59:47.590Z,440.59
2022-12-18T00:59:57.595Z,440.57
2022-12-18T01:00:07.605Z,440.51
2022-12-18T01:00:17.591Z,440.57
2022-12-18T01:00:27.592Z,440.61
2022-12-18T01:00:37.693Z,440.60
2022-12-18T01:00:47.667Z,440.57
2022-12-18T01:00:57.627Z,440.56
2022-12-18T01:01:07.655Z,440.56
2022-12-18T01:01:17.708Z,440.63
2022-12-18T01:01:27.650Z,440.64
2022-12-18T01:01:37.778Z,440.72
2022-12-18T01:01:48.010Z,440.73
2022-12-18T01:01:57.742Z,440.72
2022-12-18T01:02:07.701Z,440.80
2022-12-18T01:02:17.843Z,440.73
2022-12-18T01:02:27.714Z,440.71
2022-12-18T01:02:37.804Z,440.72
2022-12-18T01:02:47.699Z,440.69
2022-12-18T01:02:57.651Z,440.68
2022-12-18T01:03:07.736Z,440.73
2022-12-18T01:03:17.655Z,440.64
2022-12-18T01:03:27.612Z,440.64
2022-12-18T01:03:38.061Z,440.56
2022-12-18T01:03:47.635Z,440.59
2022-12-18T01:03:57.612Z,440.50
2022-12-18T01:04:07.626Z,440.43
2022-12-18T01:04:17.619Z,440.38
2022-12-18T01:04:27.614Z,440.44
2022-12-18T01:04:37.620Z,440.49
2022-12-18T01:04:47.616Z,440.40
2022-12-18T01:04:57.617Z,440.46
2022-12-18T01:05:07.627Z,440.37
2022-12-18T01:05:17.620Z,440.30
2022-12-18T01:05:27.623Z,440.27
2022-12-18T01:05:37.645Z,440.23
2022-12-18T01:05:47.627Z,440.14
2022-12-18T01:05:57.628Z,440.17
2022-12-18T01:06:07.638Z,440.15
2022-12-18T01:06:17.633Z,440.09
2022-12-18T01:06:27.626Z,440.07
2022-12-18T01:06:37.631Z,440.01
2022-12-18T01:06:47.630Z,440.05
2022-12-18T01:06:57.631Z,439.99
2022-12-18T01:07:07.642Z,439.92
2022-12-18T01:07:17.630Z,439.97
2022-12-18T01:07:27.631Z,439.99
2022-12-18T01:07:37.664Z,439.96
2022-12-18T01:07:47.633Z,439.96
2022-12-18T01:07:57.635Z,439.92
2022-12-18T01:08:07.655Z,439.90
2022-12-18T01:08:17.638Z,439.86
2022-12-18T01:08:27.639Z,439.85
2022-12-18T01:08:37.643Z,439.90
2022-12-18T01:08:47.643Z,439.83
2022-12-18T01:08:57.640Z,439.82
2022-12-18T01:09:07.655Z,439.88
2022-12-18T01:09:17.646Z,439.84
2022-12-18T01:09:27.645Z,439.87
2022-12-18T01:09:37.646Z,439.87
2022-12-18T01:09:47.644Z,439.85
2022-12-18T01:09:57.644Z,439.84
2022-12-18T01:10:07.660Z,439.83
2022-12-18T01:10:17.649Z,439.74
2022-12-18T01:10:27.650Z,439.80
2022-12-18T01:10:37.651Z,439.87
2022-12-18T01:10:47.650Z,439.82
2022-12-18T01:10:57.652Z,439.86
2022-12-18T01:11:07.676Z,439.73
2022-12-18T01:11:17.654Z,439.76
2022-12-18T01:11:27.652Z,439.68
2022-12-18T01:11:37.653Z,439.72
2022-12-18T01:11:47.658Z,439.66
2022-12-18T01:11:57.657Z,439.63
2022-12-18T01:12:07.674Z,439.62
2022-12-18T01:12:17.689Z,439.67
2022-12-18T01:12:27.660Z,439.61
2022-12-18T01:12:37.664Z,439.53
2022-12-18T01:12:47.663Z,439.49
2022-12-18T01:12:57.664Z,439.42
2022-12-18T01:13:07.677Z,439.41
2022-12-18T01:13:17.671Z,439.37
2022-12-18T01:13:27.667Z,439.41
2022-12-18T01:13:38.008Z,439.30
2022-12-18T01:13:47.669Z,439.32
2022-12-18T01:13:57.669Z,439.42
2022-12-18T01:14:07.682Z,439.24
2022-12-18T01:14:17.677Z,439.27
2022-12-18T01:14:27.672Z,439.17
2022-12-18T01:14:37.677Z,439.24
2022-12-18T01:14:47.675Z,439.23
2022-12-18T01:14:57.676Z,439.29
2022-12-18T01:15:07.689Z,439.27
2022-12-18T01:15:17.682Z,439.26
2022-12-18T01:15:27.680Z,439.19
2022-12-18T01:15:37.695Z,439.24
2022-12-18T01:15:47.685Z,439.20
2022-12-18T01:15:57.688Z,439.18
2022-12-18T01:16:07.772Z,439.25
2022-12-18T01:16:17.714Z,439.20
2022-12-18T01:16:27.792Z,439.19
2022-12-18T01:16:37.770Z,439.18
2022-12-18T01:16:47.774Z,439.16
2022-12-18T01:16:57.690Z,439.15
2022-12-18T01:17:07.702Z,439.08
2022-12-18T01:17:17.690Z,439.14
2022-12-18T01:17:27.693Z,439.10
2022-12-18T01:17:37.691Z,439.07
2022-12-18T01:17:47.692Z,439.10
2022-12-18T01:17:57.696Z,439.12
2022-12-18T01:18:07.704Z,439.09
2022-12-18T01:18:17.695Z,439.04
2022-12-18T01:18:27.695Z,439.07
2022-12-18T01:18:37.698Z,439.03
2022-12-18T01:18:47.699Z,439.03
2022-12-18T01:18:57.700Z,438.99
2022-12-18T01:19:07.702Z,439.08
2022-12-18T01:19:17.720Z,439.13
2022-12-18T01:19:27.701Z,439.07
2022-12-18T01:19:37.701Z,439.07
2022-12-18T01:19:47.702Z,439.10
2022-12-18T01:19:57.705Z,439.08
2022-12-18T01:20:07.710Z,439.09
2022-12-18T01:20:17.716Z,439.06
2022-12-18T01:20:27.706Z,439.14
2022-12-18T01:20:37.708Z,439.14
2022-12-18T01:20:47.709Z,439.09
2022-12-18T01:20:57.713Z,439.15
2022-12-18T01:21:07.713Z,439.12
2022-12-18T01:21:17.724Z,439.17
2022-12-18T01:21:27.713Z,439.18
2022-12-18T01:21:37.715Z,439.12
2022-12-18T01:21:47.716Z,439.18
2022-12-18T01:21:57.718Z,439.10
2022-12-18T01:22:07.718Z,439.14
2022-12-18T01:22:17.734Z,439.12
2022-12-18T01:22:27.719Z,439.21
2022-12-18T01:22:37.720Z,439.13
2022-12-18T01:22:47.724Z,439.21
2022-12-18T01:22:57.722Z,439.16
2022-12-18T01:23:07.725Z,439.20
2022-12-18T01:23:17.740Z,439.27
2022-12-18T01:23:27.729Z,439.30
2022-12-18T01:23:38.225Z,439.31
2022-12-18T01:23:47.735Z,439.27
2022-12-18T01:23:57.727Z,439.37
2022-12-18T01:24:07.730Z,439.37
2022-12-18T01:24:17.745Z,439.40
2022-12-18T01:24:27.736Z,439.41
2022-12-18T01:24:37.732Z,439.44
2022-12-18T01:24:47.733Z,439.48
2022-12-18T01:24:57.732Z,439.53
2022-12-18T01:25:07.735Z,439.54
2022-12-18T01:25:17.755Z,439.54
2022-12-18T01:25:27.738Z,439.58
2022-12-18T01:25:37.739Z,439.57
2022-12-18T01:25:47.741Z,439.58
2022-12-18T01:25:57.742Z,439.57
2022-12-18T01:26:07.743Z,439.68
2022-12-18T01:26:17.754Z,439.70
2022-12-18T01:26:27.747Z,439.66
2022-12-18T01:26:37.746Z,439.74
2022-12-18T01:26:47.748Z,439.76
2022-12-18T01:26:57.746Z,439.87
2022-12-18T01:27:07.747Z,439.84
2022-12-18T01:27:17.758Z,439.90
2022-12-18T01:27:27.750Z,439.78
2022-12-18T01:27:37.751Z,439.89
2022-12-18T01:27:47.766Z,440.01
2022-12-18T01:27:57.780Z,439.97
2022-12-18T01:28:07.752Z,439.98
2022-12-18T01:28:17.755Z,439.96
2022-12-18T01:28:27.752Z,439.97
2022-12-18T01:28:37.759Z,440.06
2022-12-18T01:28:47.757Z,440.02
2022-12-18T01:28:57.755Z,440.09
2022-12-18T01:29:07.756Z,440.15
2022-12-18T01:29:17.778Z,440.18
2022-12-18T01:29:27.760Z,440.10
2022-12-18T01:29:37.762Z,440.06
2022-12-18T01:29:47.761Z,440.10
2022-12-18T01:29:57.766Z,440.11
2022-12-18T01:30:07.768Z,440.21
2022-12-18T01:30:17.767Z,440.10
2022-12-18T01:30:27.779Z,440.10
2022-12-18T01:30:37.766Z,440.15
2022-12-18T01:30:47.765Z,440.13
2022-12-18T01:30:57.767Z,440.06
2022-12-18T01:31:07.767Z,440.02
2022-12-18T01:31:17.781Z,439.98
2022-12-18T01:31:27.867Z,439.97
2022-12-18T01:31:37.789Z,439.91
2022-12-18T01:31:47.833Z,439.94
2022-12-18T01:31:57.814Z,439.90
2022-12-18T01:32:07.805Z,439.91
2022-12-18T01:32:17.778Z,439.89
2022-12-18T01:32:27.791Z,439.86
2022-12-18T01:32:37.785Z,439.78
2022-12-18T01:32:47.788Z,439.82
2022-12-18T01:32:57.783Z,439.76
2022-12-18T01:33:07.783Z,439.81
2022-12-18T01:33:17.801Z,439.81
2022-12-18T01:33:27.801Z,439.76
2022-12-18T01:33:38.223Z,439.62
2022-12-18T01:33:47.792Z,439.65
2022-12-18T01:33:57.789Z,439.59
2022-12-18T01:34:07.789Z,439.59
2022-12-18T01:34:17.802Z,439.62
2022-12-18T01:34:27.803Z,439.51
2022-12-18T01:34:37.792Z,439.64
2022-12-18T01:34:47.795Z,439.56
2022-12-18T01:34:57.796Z,439.55
2022-12-18T01:35:07.797Z,439.44
2022-12-18T01:35:17.800Z,439.47
2022-12-18T01:35:27.811Z,439.39
2022-12-18T01:35:37.799Z,439.43
2022-12-18T01:35:47.799Z,439.40
2022-12-18T01:35:57.808Z,439.40
2022-12-18T01:36:07.804Z,439.41
2022-12-18T01:36:17.802Z,439.39
2022-12-18T01:36:27.819Z,439.32
2022-12-18T01:36:37.807Z,439.40
2022-12-18T01:36:47.807Z,439.29
2022-12-18T01:36:57.809Z,439.33
2022-12-18T01:37:07.807Z,439.28
2022-12-18T01:37:17.811Z,439.34
2022-12-18T01:37:27.821Z,439.32
2022-12-18T01:37:37.812Z,439.34
2022-12-18T01:37:47.814Z,439.29
2022-12-18T01:37:57.815Z,439.22
2022-12-18T01:38:07.814Z,439.21
2022-12-18T01:38:17.815Z,439.17
2022-12-18T01:38:27.831Z,439.14
2022-12-18T01:38:37.817Z,439.11
2022-12-18T01:38:47.819Z,439.07
2022-12-18T01:38:57.829Z,439.11
2022-12-18T01:39:07.820Z,439.01
2022-12-18T01:39:17.833Z,439.04
2022-12-18T01:39:27.839Z,439.00
2022-12-18T01:39:37.824Z,439.04
2022-12-18T01:39:47.824Z,438.94
2022-12-18T01:39:57.831Z,438.90
2022-12-18T01:40:07.827Z,438.89
2022-12-18T01:40:17.830Z,438.84
2022-12-18T01:40:27.842Z,438.85
2022-12-18T01:40:37.830Z,438.73
2022-12-18T01:40:47.831Z,438.74
2022-12-18T01:40:57.831Z,438.70
2022-12-18T01:41:07.836Z,438.72
2022-12-18T01:41:17.833Z,438.66
2022-12-18T01:41:27.845Z,438.54
2022-12-18T01:41:37.835Z,438.54
2022-12-18T01:41:47.835Z,438.50
2022-12-18T01:41:57.837Z,438.46
2022-12-18T01:42:07.841Z,438.39
2022-12-18T01:42:17.841Z,438.44
2022-12-18T01:42:27.856Z,438.34
2022-12-18T01:42:37.842Z,438.33
2022-12-18T01:42:47.844Z,438.27
2022-12-18T01:42:57.847Z,438.24
2022-12-18T01:43:07.846Z,438.18
2022-12-18T01:43:17.846Z,438.11
2022-12-18T01:43:27.868Z,438.10
2022-12-18T01:43:38.299Z,438.06
2022-12-18T01:43:47.850Z,438.00
2022-12-18T01:43:57.856Z,437.98
2022-12-18T01:44:07.853Z,437.99
2022-12-18T01:44:17.866Z,437.98
2022-12-18T01:44:27.871Z,437.88
2022-12-18T01:44:37.857Z,437.85
2022-12-18T01:44:47.855Z,437.79
2022-12-18T01:44:57.886Z,437.75
2022-12-18T01:45:07.858Z,437.75
2022-12-18T01:45:17.860Z,437.71
2022-12-18T01:45:27.924Z,437.66
2022-12-18T01:45:37.966Z,437.69
2022-12-18T01:45:47.958Z,437.62
2022-12-18T01:45:57.885Z,437.64
2022-12-18T01:46:07.925Z,437.55
2022-12-18T01:46:17.891Z,437.60
2022-12-18T01:46:27.886Z,437.48
2022-12-18T01:46:37.866Z,437.52
2022-12-18T01:46:47.869Z,437.48
2022-12-18T01:46:57.867Z,437.43
2022-12-18T01:47:07.871Z,437.39
2022-12-18T01:47:17.871Z,437.42
2022-12-18T01:47:27.891Z,437.35
2022-12-18T01:47:37.871Z,437.43
2022-12-18T01:47:47.873Z,437.41
2022-12-18T01:47:57.875Z,437.35
2022-12-18T01:48:07.874Z,437.40
2022-12-18T01:48:17.875Z,437.38
2022-12-18T01:48:27.884Z,437.33
2022-12-18T01:48:37.877Z,437.33
2022-12-18T01:48:47.881Z,437.41
2022-12-18T01:48:57.880Z,437.36
2022-12-18T01:49:07.877Z,437.41
2022-12-18T01:49:17.915Z,437.44
2022-12-18T01:49:27.892Z,437.51
2022-12-18T01:49:37.882Z,437.41
2022-12-18T01:49:47.885Z,437.41
2022-12-18T01:49:57.885Z,437.45
2022-12-18T01:50:07.891Z,437.40
2022-12-18T01:50:17.887Z,437.37
2022-12-18T01:50:27.905Z,437.42
2022-12-18T01:50:37.890Z,437.49
2022-12-18T01:50:47.890Z,437.47
2022-12-18T01:50:57.891Z,437.49
2022-12-18T01:51:07.893Z,437.48
2022-12-18T01:51:17.893Z,437.54
2022-12-18T01:51:27.906Z,437.53
2022-12-18T01:51:37.893Z,437.61
2022-12-18T01:51:47.900Z,437.64
2022-12-18T01:51:57.899Z,437.72
2022-12-18T01:52:07.899Z,437.73
2022-12-18T01:52:17.901Z,437.76
2022-12-18T01:52:27.919Z,437.73
2022-12-18T01:52:37.903Z,437.84
2022-12-18T01:52:47.967Z,437.85
2022-12-18T01:52:57.906Z,437.94
2022-12-18T01:53:07.904Z,437.98
2022-12-18T01:53:17.906Z,438.01
2022-12-18T01:53:27.919Z,437.98
2022-12-18T01:53:38.291Z,438.10
2022-12-18T01:53:47.910Z,438.10
2022-12-18T01:53:57.909Z,438.09
2022-12-18T01:54:07.908Z,438.22
2022-12-18T01:54:17.924Z,438.17
2022-12-18T01:54:27.926Z,438.22
2022-12-18T01:54:37.911Z,438.26
2022-12-18T01:54:47.921Z,438.26
2022-12-18T01:54:57.914Z,438.26
2022-12-18T01:55:07.913Z,438.18
2022-12-18T01:55:17.914Z,438.16
2022-12-18T01:55:27.933Z,438.25
2022-12-18T01:55:37.916Z,438.19
2022-12-18T01:55:47.927Z,438.23
2022-12-18T01:55:57.920Z,438.19
2022-12-18T01:56:07.932Z,438.18
2022-12-18T01:56:17.921Z,438.20
2022-12-18T01:56:27.951Z,438.14
2022-12-18T01:56:37.923Z,438.16
2022-12-18T01:56:47.927Z,438.10
2022-12-18T01:56:57.934Z,438.03
2022-12-18T01:57:07.929Z,438.09
2022-12-18T01:57:17.929Z,438.03
2022-12-18T01:57:27.942Z,437.92
2022-12-18T01:57:37.932Z,437.96
2022-12-18T01:57:47.962Z,437.98
2022-12-18T01:57:57.932Z,437.97
2022-12-18T01:58:07.935Z,437.93
2022-12-18T01:58:17.935Z,437.90
2022-12-18T01:58:27.945Z,437.87
2022-12-18T01:58:37.935Z,437.81
2022-12-18T01:58:47.935Z,437.83
2022-12-18T01:58:57.937Z,437.91
2022-12-18T01:59:07.937Z,437.94
2022-12-18T01:59:17.950Z,437.85
2022-12-18T01:59:27.954Z,437.83
2022-12-18T01:59:37.937Z,437.78
2022-12-18T01:59:47.938Z,437.75
2022-12-18T01:59:57.949Z,437.74
2022-12-18T02:00:07.942Z,437.69
2022-12-18T02:00:17.948Z,437.60
2022-12-18T02:00:27.976Z,437.67
2022-12-18T02:00:37.960Z,437.70
2022-12-18T02:00:47.974Z,437.65
2022-12-18T02:00:58.007Z,437.67
2022-12-18T02:01:07.970Z,437.70
2022-12-18T02:01:18.121Z,437.67
2022-12-18T02:01:28.151Z,437.59
2022-12-18T02:01:38.105Z,437.63
2022-12-18T02:01:48.119Z,437.59
2022-12-18T02:01:58.154Z,437.53
2022-12-18T02:02:08.180Z,437.57
2022-12-18T02:02:18.133Z,437.44
2022-12-18T02:02:28.086Z,437.46
2022-12-18T02:02:38.049Z,437.39
2022-12-18T02:02:48.124Z,437.43
2022-12-18T02:02:58.076Z,437.32
2022-12-18T02:03:08.022Z,437.39
2022-12-18T02:03:18.038Z,437.33
2022-12-18T02:03:28.026Z,437.26
2022-12-18T02:03:38.343Z,437.30
2022-12-18T02:03:47.962Z,437.25
2022-12-18T02:03:57.963Z,437.26
2022-12-18T02:04:07.962Z,437.22
2022-12-18T02:04:18.519Z,437.16
2022-12-18T02:04:27.979Z,437.18
2022-12-18T02:04:37.963Z,437.10
2022-12-18T02:04:49.723Z,437.11
2022-12-18T02:04:57.970Z,437.14
2022-12-18T02:05:07.955Z,437.14